Terminal Aerodrome Forecast
Issued by NWS Kansas City/Pleasant Hill, MO

Home | Current Version | Previous Version | Text Only | Print | Product List | Glossary On
Versions: 1 2 3 4 5 6 7 8 9 10 11 12 13 14 15 16 17 18
000
FTUS43 KEAX 061900 AAA
TAFMCI
TAF AMD
KMCI 061924Z 0619/0718 18015G25KT P6SM VCSH SCT030 BKN100
      TEMPO 0619/0620 -SHRA
     FM062100 17018G28KT P6SM BKN080
     FM070900 17017G25KT P6SM VCSH BKN050
     FM071300 18014G22KT P6SM SCT030 BKN050=

USA.gov is the U.S. government's official web portal to all federal, state and local government web resources and services.